Hanoi, Vietnam
Current Conditions -  °F | °C
As of 11:00 PM on Friday 28 Nov 2014 (Local Time) from VVNB Reporting Station
Broken Clouds Broken Clouds  
Wind Chill: 77°   Ceiling: 1600
Heat Index: 78°   Visibility: 5mi
Dew Point: 73°   Wind: 13mph
Humidity: 89%   Direction: 120°ESE
Pressure: 29.88"   Gusts: NA
Location:  21.02°N, 105.85°E
Report Text: VVNB 281600Z 12011KT 8000 BKN016 25/23 Q1012 NOSIG
Loading
Personal Weather Stations






























Interactive Weather Map New forecast layout! Learn more

10-Day Weather Forecast

Advertisements
Track Severe Weather on mobile